createdAt,value
2022-09-20T00:01:42.936Z,9.77
2022-09-20T00:04:11.450Z,9.75
2022-09-20T00:06:39.855Z,9.74
2022-09-20T00:09:08.340Z,9.75
2022-09-20T00:11:37.316Z,9.78
2022-09-20T00:14:08.983Z,9.79
2022-09-20T00:16:41.100Z,9.81
2022-09-20T00:19:18.973Z,9.81
2022-09-20T00:21:47.640Z,9.83
2022-09-20T00:24:16.306Z,9.84
2022-09-20T00:26:44.645Z,9.84
2022-09-20T00:29:13.479Z,9.85
2022-09-20T00:31:43.217Z,9.84
2022-09-20T00:34:31.772Z,9.83
2022-09-20T00:37:00.131Z,9.80
2022-09-20T00:39:28.477Z,9.80
2022-09-20T00:41:56.851Z,9.81
2022-09-20T00:44:45.506Z,9.82
2022-09-20T00:47:37.006Z,9.80
2022-09-20T00:50:23.802Z,9.79
2022-09-20T00:53:00.147Z,9.77
2022-09-20T00:55:29.170Z,9.74
2022-09-20T00:57:58.955Z,9.70
2022-09-20T01:00:27.867Z,9.68
2022-09-20T01:03:06.282Z,9.64
2022-09-20T01:05:35.657Z,9.61
2022-09-20T01:08:04.678Z,9.58
2022-09-20T01:10:33.667Z,9.55
2022-09-20T01:13:02.073Z,9.54
2022-09-20T01:15:32.658Z,9.53
2022-09-20T01:18:03.194Z,9.53
2022-09-20T01:20:37.077Z,9.52
2022-09-20T01:23:45.764Z,9.51
2022-09-20T01:26:29.347Z,9.50
2022-09-20T01:29:16.690Z,9.47
2022-09-20T01:31:53.575Z,9.45
2022-09-20T01:34:38.132Z,9.43
2022-09-20T01:37:11.933Z,9.41
2022-09-20T01:39:47.976Z,9.38
2022-09-20T01:42:16.915Z,9.35
2022-09-20T01:45:19.167Z,9.32
2022-09-20T01:48:14.801Z,9.28
2022-09-20T01:51:40.846Z,9.24
2022-09-20T01:54:21.014Z,9.19
2022-09-20T01:56:54.231Z,9.16
2022-09-20T01:59:44.966Z,9.13
2022-09-20T02:03:00.839Z,9.12
2022-09-20T02:05:56.784Z,9.11
2022-09-20T02:08:44.282Z,9.10
2022-09-20T02:11:19.560Z,9.10
2022-09-20T02:13:57.001Z,9.10
2022-09-20T02:16:53.007Z,9.09
2022-09-20T02:19:51.096Z,9.08
2022-09-20T02:22:56.764Z,9.06
2022-09-20T02:26:11.158Z,9.06
2022-09-20T02:29:01.324Z,9.02
2022-09-20T02:31:41.899Z,8.96
2022-09-20T02:35:06.985Z,8.89
2022-09-20T02:37:55.652Z,8.80
2022-09-20T02:40:32.912Z,8.75
2022-09-20T02:43:04.242Z,8.70
2022-09-20T02:45:51.330Z,8.66
2022-09-20T02:48:27.901Z,8.63
2022-09-20T02:51:24.787Z,8.60
2022-09-20T02:54:21.705Z,8.53
2022-09-20T02:57:15.937Z,8.57
2022-09-20T02:59:56.209Z,8.56
2022-09-20T03:02:36.549Z,8.54
2022-09-20T03:05:24.293Z,8.55
2022-09-20T03:08:07.672Z,8.54
2022-09-20T03:10:43.883Z,8.53
2022-09-20T03:13:36.543Z,8.51
2022-09-20T03:16:07.803Z,8.49
2022-09-20T03:18:59.521Z,8.48
2022-09-20T03:21:58.054Z,8.47
2022-09-20T03:25:21.631Z,8.44
2022-09-20T03:28:24.712Z,8.43
2022-09-20T03:31:39.412Z,8.42
2022-09-20T03:34:48.242Z,8.41
2022-09-20T03:37:31.350Z,8.34
2022-09-20T03:40:20.827Z,8.40
2022-09-20T03:42:52.960Z,8.39
2022-09-20T03:45:55.393Z,8.38
2022-09-20T03:48:51.518Z,8.37
2022-09-20T03:51:33.857Z,8.34
2022-09-20T03:54:54.614Z,8.32
2022-09-20T03:58:06.806Z,8.28
2022-09-20T04:01:10.048Z,8.26
2022-09-20T04:03:54.135Z,8.22
2022-09-20T04:07:13.139Z,8.20
2022-09-20T04:10:19.406Z,8.16
2022-09-20T04:12:59.687Z,8.14
2022-09-20T04:15:38.525Z,8.11
2022-09-20T04:18:24.815Z,8.09
2022-09-20T04:21:03.373Z,8.07
2022-09-20T04:23:53.486Z,8.05
2022-09-20T04:26:28.731Z,8.03
2022-09-20T04:29:09.873Z,8.02
2022-09-20T04:31:57.227Z,8.00
2022-09-20T04:34:54.289Z,8.00
2022-09-20T04:37:38.531Z,7.99
2022-09-20T04:40:26.543Z,7.99
2022-09-20T04:43:19.083Z,7.98
2022-09-20T04:46:20.108Z,7.97
2022-09-20T04:48:54.795Z,7.97
2022-09-20T04:51:54.455Z,7.97
2022-09-20T04:54:53.545Z,7.98
2022-09-20T04:57:54.031Z,8.00
2022-09-20T05:00:25.141Z,8.01
2022-09-20T05:03:16.890Z,8.04
2022-09-20T05:06:15.801Z,8.06
2022-09-20T05:09:00.644Z,8.09
2022-09-20T05:11:49.943Z,8.13
2022-09-20T05:14:44.097Z,8.14
2022-09-20T05:17:25.658Z,8.18
2022-09-20T05:20:07.636Z,8.22
2022-09-20T05:23:09.391Z,8.26
2022-09-20T05:26:11.841Z,8.29
2022-09-20T05:29:01.259Z,8.33
2022-09-20T05:31:53.126Z,8.36
2022-09-20T05:34:52.474Z,8.41
2022-09-20T05:38:01.280Z,8.48
2022-09-20T05:41:37.172Z,8.55
2022-09-20T05:44:37.319Z,8.61
2022-09-20T05:47:35.075Z,8.69
2022-09-20T05:50:34.667Z,8.78
2022-09-20T05:53:40.121Z,8.87
2022-09-20T05:56:49.978Z,8.97
2022-09-20T05:59:42.856Z,9.00
2022-09-20T06:02:41.449Z,9.06
2022-09-20T06:05:47.313Z,9.10
2022-09-20T06:09:00.441Z,9.15
2022-09-20T06:12:24.851Z,9.20
2022-09-20T06:15:29.180Z,9.22
2022-09-20T06:18:31.880Z,9.25
2022-09-20T06:21:28.384Z,9.30
2022-09-20T06:24:00.513Z,9.30
2022-09-20T06:26:34.037Z,9.36
2022-09-20T06:29:11.785Z,9.44
2022-09-20T06:31:40.156Z,9.50
2022-09-20T06:34:14.776Z,9.59
2022-09-20T06:37:13.167Z,9.71
2022-09-20T06:40:15.877Z,9.84
2022-09-20T06:42:44.791Z,10.01
2022-09-20T06:45:13.269Z,10.16
2022-09-20T06:47:42.094Z,10.27
2022-09-20T06:50:17.539Z,10.36
2022-09-20T06:52:46.763Z,10.41
2022-09-20T06:55:29.567Z,10.45
2022-09-20T06:57:58.584Z,10.51
2022-09-20T07:00:26.879Z,10.59
2022-09-20T07:02:56.888Z,10.73
2022-09-20T07:05:26.744Z,10.86
2022-09-20T07:07:59.369Z,10.97
2022-09-20T07:10:28.847Z,11.07
2022-09-20T07:13:02.726Z,11.20
2022-09-20T07:15:35.175Z,11.31
2022-09-20T07:18:03.636Z,11.27
2022-09-20T07:20:32.045Z,11.20
2022-09-20T07:23:00.454Z,11.15
2022-09-20T07:25:28.874Z,11.13
2022-09-20T07:27:57.756Z,11.13
2022-09-20T07:30:26.320Z,11.09
2022-09-20T07:32:55.057Z,11.05
2022-09-20T07:35:24.243Z,11.05
2022-09-20T07:37:58.930Z,11.04
2022-09-20T07:40:27.496Z,11.06
2022-09-20T07:42:58.109Z,11.08
2022-09-20T07:45:26.412Z,11.10
2022-09-20T07:47:54.705Z,11.15
2022-09-20T07:50:22.932Z,11.21
2022-09-20T07:52:51.489Z,11.28
2022-09-20T07:55:19.819Z,11.33
2022-09-20T07:57:48.178Z,11.33
2022-09-20T08:00:16.609Z,11.34
2022-09-20T08:02:45.588Z,11.44
2022-09-20T08:05:13.895Z,11.49
2022-09-20T08:07:42.214Z,11.57
2022-09-20T08:10:10.586Z,11.72
2022-09-20T08:15:27.200Z,12.02
2022-09-20T08:17:55.456Z,11.93
2022-09-20T08:20:23.727Z,11.88
2022-09-20T08:23:19.416Z,11.88
2022-09-20T08:25:42.867Z,11.92
2022-09-20T08:28:11.181Z,11.91
2022-09-20T08:30:39.476Z,11.93
2022-09-20T08:33:07.790Z,12.06
2022-09-20T08:35:38.238Z,12.29
2022-09-20T08:41:12.796Z,12.40
2022-09-20T08:44:17.850Z,12.42
2022-09-20T08:46:56.485Z,12.42
2022-09-20T08:49:29.913Z,12.46
2022-09-20T08:51:59.537Z,12.47
2022-09-20T08:54:32.771Z,12.52
2022-09-20T08:57:13.028Z,12.71
2022-09-20T08:59:41.844Z,12.84
2022-09-20T09:02:20.295Z,13.06
2022-09-20T09:04:51.673Z,13.24
2022-09-20T09:07:23.765Z,13.26
2022-09-20T09:09:54.214Z,13.24
2022-09-20T09:12:30.204Z,13.35
2022-09-20T09:15:19.709Z,13.52
2022-09-20T09:17:47.942Z,13.71
2022-09-20T09:20:22.648Z,13.78
2022-09-20T09:23:03.488Z,13.93
2022-09-20T09:25:39.842Z,13.97
2022-09-20T09:28:07.960Z,13.93
2022-09-20T09:30:39.866Z,13.87
2022-09-20T09:33:20.097Z,13.93
2022-09-20T09:35:59.347Z,14.06
2022-09-20T09:38:40.207Z,14.02
2022-09-20T09:41:35.419Z,14.10
2022-09-20T09:44:27.892Z,14.31
2022-09-20T09:46:58.102Z,14.39
2022-09-20T09:49:34.242Z,14.23
2022-09-20T09:52:25.798Z,13.94
2022-09-20T09:55:03.636Z,13.84
2022-09-20T09:57:59.245Z,14.03
2022-09-20T10:00:29.910Z,14.29
2022-09-20T10:03:19.733Z,14.43
2022-09-20T10:06:55.811Z,14.37
2022-09-20T10:09:45.437Z,14.14
2022-09-20T10:12:26.440Z,14.03
2022-09-20T10:15:32.668Z,13.93
2022-09-20T10:18:09.934Z,13.88
2022-09-20T10:20:57.721Z,13.95
2022-09-20T10:24:04.481Z,14.01
2022-09-20T10:26:45.315Z,14.03
2022-09-20T10:29:34.970Z,14.27
2022-09-20T10:32:56.104Z,14.49
2022-09-20T10:35:52.573Z,14.48
2022-09-20T10:38:36.022Z,14.39
2022-09-20T10:42:00.418Z,14.30
2022-09-20T10:44:46.747Z,14.57
2022-09-20T10:47:24.527Z,14.95
2022-09-20T10:50:20.421Z,15.06
2022-09-20T10:53:10.308Z,15.04
2022-09-20T10:56:13.448Z,14.78
2022-09-20T10:59:08.908Z,14.59
2022-09-20T11:01:55.339Z,14.55
2022-09-20T11:04:54.226Z,14.50
2022-09-20T11:07:56.407Z,14.55
2022-09-20T11:11:08.817Z,14.73
2022-09-20T11:13:53.226Z,14.76
2022-09-20T11:16:33.395Z,14.58
2022-09-20T11:19:23.653Z,14.43
2022-09-20T11:22:06.196Z,14.37
2022-09-20T11:24:47.988Z,14.40
2022-09-20T11:27:34.167Z,14.81
2022-09-20T11:30:22.118Z,15.45
2022-09-20T11:33:11.702Z,15.63
2022-09-20T11:35:53.337Z,15.69
2022-09-20T11:38:53.422Z,15.56
2022-09-20T11:41:30.561Z,15.47
2022-09-20T11:44:12.136Z,15.37
2022-09-20T11:47:36.562Z,15.19
2022-09-20T11:50:44.440Z,15.32
2022-09-20T11:53:55.676Z,15.15
2022-09-20T11:56:31.152Z,14.91
2022-09-20T11:59:03.554Z,14.77
2022-09-20T12:01:39.229Z,14.70
2022-09-20T12:04:38.999Z,14.74
2022-09-20T12:07:43.002Z,14.79
2022-09-20T12:10:25.364Z,14.70
2022-09-20T12:13:15.760Z,14.59
2022-09-20T12:15:44.910Z,14.59
2022-09-20T12:18:46.103Z,14.59
2022-09-20T12:21:18.482Z,14.63
2022-09-20T12:24:01.765Z,14.61
2022-09-20T12:26:42.749Z,14.58
2022-09-20T12:29:34.354Z,14.67
2022-09-20T12:32:24.090Z,14.76
2022-09-20T12:34:52.638Z,14.89
2022-09-20T12:37:26.457Z,15.33
2022-09-20T12:39:56.310Z,16.01
2022-09-20T12:42:32.538Z,16.69
2022-09-20T12:45:08.116Z,17.17
2022-09-20T12:47:38.440Z,17.16
2022-09-20T12:50:34.901Z,16.93
2022-09-20T12:53:12.282Z,16.61
2022-09-20T12:55:56.388Z,16.42
2022-09-20T12:58:47.158Z,17.05
2022-09-20T13:01:15.466Z,18.00
2022-09-20T13:03:50.940Z,18.67
2022-09-20T13:06:19.345Z,19.10
2022-09-20T13:09:04.455Z,19.26
2022-09-20T13:11:54.320Z,19.26
2022-09-20T13:14:30.000Z,18.68
2022-09-20T13:17:13.814Z,17.90
2022-09-20T13:19:50.889Z,17.30
2022-09-20T13:22:38.021Z,16.78
2022-09-20T13:25:08.232Z,16.32
2022-09-20T13:27:49.808Z,16.23
2022-09-20T13:30:32.876Z,16.45
2022-09-20T13:33:25.119Z,16.94
2022-09-20T13:35:57.662Z,17.67
2022-09-20T13:38:32.005Z,18.10
2022-09-20T13:41:11.048Z,18.24
2022-09-20T13:43:50.887Z,18.77
2022-09-20T13:46:24.733Z,18.91
2022-09-20T13:49:23.890Z,18.64
2022-09-20T13:51:52.378Z,18.39
2022-09-20T13:54:31.515Z,18.06
2022-09-20T13:57:04.372Z,18.00
2022-09-20T13:59:45.623Z,18.06
2022-09-20T14:02:34.501Z,18.34
2022-09-20T14:05:07.435Z,18.63
2022-09-20T14:07:36.992Z,18.40
2022-09-20T14:10:33.168Z,17.99
2022-09-20T14:13:06.985Z,17.48
2022-09-20T14:15:44.430Z,17.14
2022-09-20T14:18:18.390Z,16.73
2022-09-20T14:20:47.898Z,16.47
2022-09-20T14:23:24.134Z,16.32
2022-09-20T14:26:36.446Z,16.19
2022-09-20T14:29:47.735Z,15.96
2022-09-20T14:32:19.101Z,15.81
2022-09-20T14:35:16.293Z,15.81
2022-09-20T14:38:02.853Z,15.74
2022-09-20T14:40:47.133Z,15.67
2022-09-20T14:43:35.178Z,15.55
2022-09-20T14:46:09.629Z,15.34
2022-09-20T14:48:43.283Z,15.11
2022-09-20T14:51:18.936Z,14.93
2022-09-20T14:54:11.106Z,14.81
2022-09-20T14:56:49.414Z,14.76
2022-09-20T14:59:17.709Z,14.75
2022-09-20T15:02:03.887Z,14.75
2022-09-20T15:04:35.504Z,14.73
2022-09-20T15:07:10.963Z,14.70
2022-09-20T15:09:39.422Z,14.69
2022-09-20T15:12:07.984Z,14.68
2022-09-20T15:14:38.009Z,14.66
2022-09-20T15:17:09.543Z,14.66
2022-09-20T15:19:40.627Z,14.62
2022-09-20T15:22:11.859Z,14.57
2022-09-20T15:24:42.040Z,14.53
2022-09-20T15:27:14.845Z,14.48
2022-09-20T15:29:43.253Z,14.41
2022-09-20T15:32:11.905Z,14.32
2022-09-20T15:34:40.335Z,14.26
2022-09-20T15:37:08.954Z,14.20
2022-09-20T15:39:37.598Z,14.14
2022-09-20T15:42:07.046Z,14.09
2022-09-20T15:44:35.493Z,14.02
2022-09-20T15:47:04.756Z,13.96
2022-09-20T15:49:33.801Z,13.89
2022-09-20T15:52:02.628Z,13.81
2022-09-20T15:54:31.276Z,13.72
2022-09-20T15:57:00.385Z,13.61
2022-09-20T15:59:29.709Z,13.48
2022-09-20T16:01:59.762Z,13.35
2022-09-20T16:04:28.139Z,13.23
2022-09-20T16:06:56.776Z,13.11
2022-09-20T16:09:26.489Z,12.99
2022-09-20T16:11:58.970Z,12.87
2022-09-20T16:14:28.012Z,12.74
2022-09-20T16:16:58.691Z,12.59
2022-09-20T16:19:27.339Z,12.47
2022-09-20T16:21:58.977Z,12.33
2022-09-20T16:24:34.787Z,12.21
2022-09-20T16:27:06.353Z,12.09
2022-09-20T16:29:36.147Z,11.97
2022-09-20T16:32:05.545Z,11.84
2022-09-20T16:34:36.567Z,11.74
2022-09-20T16:37:17.077Z,11.63
2022-09-20T16:39:45.682Z,11.53
2022-09-20T16:42:14.025Z,11.46
2022-09-20T16:44:43.296Z,11.40
2022-09-20T16:47:23.265Z,11.33
2022-09-20T16:49:53.338Z,11.25
2022-09-20T16:52:21.753Z,11.18
2022-09-20T16:54:50.477Z,11.10
2022-09-20T16:57:18.991Z,11.05
2022-09-20T16:59:48.220Z,10.99
2022-09-20T17:02:16.680Z,10.87
2022-09-20T17:04:45.277Z,10.79
2022-09-20T17:07:16.530Z,10.71
2022-09-20T17:09:44.947Z,10.61
2022-09-20T17:12:15.084Z,10.53
2022-09-20T17:14:44.268Z,10.49
2022-09-20T17:17:13.327Z,10.46
2022-09-20T17:19:41.694Z,10.43
2022-09-20T17:22:10.134Z,10.40
2022-09-20T17:24:39.820Z,10.39
2022-09-20T17:27:08.968Z,10.40
2022-09-20T17:29:37.314Z,10.43
2022-09-20T17:32:05.923Z,10.45
2022-09-20T17:34:34.458Z,10.48
2022-09-20T17:39:48.290Z,10.53
2022-09-20T17:42:17.549Z,10.57
2022-09-20T17:44:45.940Z,10.60
2022-09-20T17:47:14.537Z,10.63
2022-09-20T17:49:43.445Z,10.66
2022-09-20T17:52:11.831Z,10.68
2022-09-20T17:54:40.320Z,10.71
2022-09-20T17:57:09.429Z,10.66
2022-09-20T17:59:37.877Z,10.69
2022-09-20T18:02:06.329Z,10.65
2022-09-20T18:04:35.068Z,10.60
2022-09-20T18:07:04.590Z,10.57
2022-09-20T18:09:33.052Z,10.54
2022-09-20T18:12:02.273Z,10.53
2022-09-20T18:14:32.776Z,10.51
2022-09-20T18:17:03.825Z,10.50
2022-09-20T18:19:35.828Z,10.49
2022-09-20T18:22:04.432Z,10.49
2022-09-20T18:24:32.843Z,10.49
2022-09-20T18:27:01.337Z,10.49
2022-09-20T18:29:33.553Z,10.47
2022-09-20T18:32:02.513Z,10.48
2022-09-20T18:34:33.585Z,10.47
2022-09-20T18:37:03.991Z,10.46
2022-09-20T18:39:34.994Z,10.46
2022-09-20T18:42:04.417Z,10.44
2022-09-20T18:44:34.452Z,10.42
2022-09-20T18:47:05.414Z,10.39
2022-09-20T18:49:34.585Z,10.38
2022-09-20T18:52:03.910Z,10.37
2022-09-20T18:54:33.494Z,10.37
2022-09-20T18:57:02.754Z,10.37
2022-09-20T18:59:31.347Z,10.39
2022-09-20T19:02:45.313Z,10.39
2022-09-20T19:05:28.768Z,10.40
2022-09-20T19:08:34.453Z,10.41
2022-09-20T19:11:12.747Z,10.40
2022-09-20T19:13:53.382Z,10.40
2022-09-20T19:16:30.804Z,10.40
2022-09-20T19:19:46.886Z,10.39
2022-09-20T19:22:48.955Z,10.31
2022-09-20T19:25:43.555Z,10.36
2022-09-20T19:28:14.693Z,10.33
2022-09-20T19:30:43.417Z,10.32
2022-09-20T19:33:18.300Z,10.30
2022-09-20T19:35:51.538Z,10.27
2022-09-20T19:38:22.927Z,10.25
2022-09-20T19:41:53.003Z,10.23
2022-09-20T19:44:43.698Z,10.21
2022-09-20T19:47:42.466Z,10.21
2022-09-20T19:50:27.993Z,10.21
2022-09-20T19:52:56.914Z,10.23
2022-09-20T19:55:26.049Z,10.24
2022-09-20T19:57:54.780Z,10.26
2022-09-20T20:00:23.910Z,10.25
2022-09-20T20:02:53.127Z,10.25
2022-09-20T20:05:27.679Z,10.25
2022-09-20T20:08:14.022Z,10.26
2022-09-20T20:11:09.526Z,10.26
2022-09-20T20:14:07.278Z,10.27
2022-09-20T20:17:06.374Z,10.27
2022-09-20T20:20:33.926Z,10.26
2022-09-20T20:23:42.788Z,10.16
2022-09-20T20:26:25.691Z,10.20
2022-09-20T20:28:54.626Z,10.18
2022-09-20T20:31:23.221Z,10.16
2022-09-20T20:33:51.892Z,10.13
2022-09-20T20:36:20.443Z,10.06
2022-09-20T20:38:53.345Z,9.98
2022-09-20T20:41:23.804Z,9.88
2022-09-20T20:43:56.421Z,9.81
2022-09-20T20:46:25.924Z,9.73
2022-09-20T20:48:54.340Z,9.65
2022-09-20T20:51:23.070Z,9.57
2022-09-20T20:53:54.033Z,9.51
2022-09-20T20:56:29.918Z,9.45
2022-09-20T20:59:00.641Z,9.39
2022-09-20T21:01:44.814Z,9.35
2022-09-20T21:04:13.799Z,9.31
2022-09-20T21:06:42.579Z,9.27
2022-09-20T21:09:11.730Z,9.24
2022-09-20T21:11:44.563Z,9.22
2022-09-20T21:14:13.160Z,9.19
2022-09-20T21:16:43.555Z,9.15
2022-09-20T21:19:15.653Z,9.13
2022-09-20T21:21:46.513Z,9.09
2022-09-20T21:24:17.523Z,9.06
2022-09-20T21:26:46.674Z,9.04
2022-09-20T21:29:16.729Z,9.03
2022-09-20T21:31:47.982Z,9.03
2022-09-20T21:34:16.892Z,9.01
2022-09-20T21:36:45.304Z,9.01
2022-09-20T21:39:14.020Z,9.01
2022-09-20T21:41:42.437Z,9.01
2022-09-20T21:44:11.183Z,9.03
2022-09-20T21:46:41.778Z,9.05
2022-09-20T21:49:12.391Z,9.06
2022-09-20T21:51:42.757Z,9.08
2022-09-20T21:54:11.624Z,9.09
2022-09-20T21:56:41.368Z,9.11
2022-09-20T21:59:09.969Z,9.13
2022-09-20T22:01:41.423Z,9.16
2022-09-20T22:04:12.622Z,9.19
2022-09-20T22:06:45.391Z,9.21
2022-09-20T22:09:18.158Z,9.21
2022-09-20T22:11:49.055Z,9.19
2022-09-20T22:14:19.821Z,9.15
2022-09-20T22:16:51.356Z,9.11
2022-09-20T22:19:21.599Z,9.09
2022-09-20T22:21:51.487Z,9.07
2022-09-20T22:24:19.868Z,9.05
2022-09-20T22:26:51.009Z,9.03
2022-09-20T22:29:19.785Z,9.01
2022-09-20T22:31:50.317Z,9.00
2022-09-20T22:34:24.527Z,8.99
2022-09-20T22:36:53.931Z,8.93
2022-09-20T22:39:22.334Z,8.98
2022-09-20T22:41:51.532Z,8.99
2022-09-20T22:44:19.854Z,9.00
2022-09-20T22:46:48.140Z,9.01
2022-09-20T22:49:16.767Z,9.02
2022-09-20T22:51:45.103Z,9.01
2022-09-20T22:54:13.452Z,8.99
2022-09-20T22:56:42.570Z,8.95
2022-09-20T22:59:14.890Z,8.92
2022-09-20T23:01:48.224Z,8.88
2022-09-20T23:04:19.949Z,8.83
2022-09-20T23:06:57.000Z,8.79
2022-09-20T23:09:29.990Z,8.74
2022-09-20T23:11:58.617Z,8.70
2022-09-20T23:14:27.116Z,8.66
2022-09-20T23:16:55.465Z,8.62
2022-09-20T23:19:24.015Z,8.58
2022-09-20T23:21:52.371Z,8.52
2022-09-20T23:24:20.713Z,8.43
2022-09-20T23:26:49.099Z,8.37
2022-09-20T23:29:17.813Z,8.32
2022-09-20T23:31:47.938Z,8.28
2022-09-20T23:34:17.965Z,8.25
2022-09-20T23:36:47.154Z,8.22
2022-09-20T23:39:15.973Z,8.18
2022-09-20T23:41:49.883Z,8.16
2022-09-20T23:44:20.019Z,8.15
2022-09-20T23:46:48.406Z,8.14
2022-09-20T23:49:16.752Z,8.13
2022-09-20T23:51:45.101Z,8.12
2022-09-20T23:54:13.458Z,8.11
2022-09-20T23:56:42.986Z,8.08
2022-09-20T23:59:11.342Z,7.99
